Time;durP1;ratioP1;P1;durP2;ratioP2;P2;SDS_P1;SDS_P2;PMS_P1;PMS_P2;Temp;Humidity;BMP_temperature;BMP_pressure;BME280_temperature;BME280_humidity;BME280_pressure;Samples;Min_cycle;Max_cycle;Signal;HPM_P1;HPM_P2
2021/09/25 00:02:11;;;;;;;2.95;2.15;;;;;;;23.06;46.96;101381.75;4983731;28;20503;-62
2021/09/25 00:04:36;;;;;;;3.92;2.55;;;;;;;23.06;47.59;101379.03;4982760;28;21435;-62
2021/09/25 00:07:02;;;;;;;6.35;3.05;;;;;;;23.06;47.62;101376.31;4985695;28;20380;-62
2021/09/25 00:09:27;;;;;;;3.75;2.45;;;;;;;23.03;47.83;101377.50;4984670;28;20042;-62
2021/09/25 00:11:53;;;;;;;4.15;2.40;;;;;;;23.02;47.37;101375.84;4985435;28;20080;-62
2021/09/25 00:14:18;;;;;;;3.70;2.38;;;;;;;23.01;46.86;101370.56;4984969;28;20018;-62
2021/09/25 00:16:43;;;;;;;3.97;2.50;;;;;;;23.00;46.88;101377.09;4983085;28;20038;-62
2021/09/25 00:19:09;;;;;;;6.72;2.90;;;;;;;22.97;46.78;101367.38;4981638;28;20030;-62
2021/09/25 00:21:35;;;;;;;5.00;2.42;;;;;;;22.94;47.78;101366.94;4984047;28;20037;-62
2021/09/25 00:24:00;;;;;;;5.47;2.58;;;;;;;22.90;47.65;101361.00;4985100;28;20062;-62
2021/09/25 00:26:26;;;;;;;3.65;2.78;;;;;;;22.87;47.06;101353.19;4981996;28;20031;-62
2021/09/25 00:28:53;;;;;;;4.55;2.65;;;;;;;22.87;47.14;101368.75;4984472;28;20029;-62
2021/09/25 00:31:18;;;;;;;4.75;2.50;;;;;;;22.87;46.74;101366.00;4992842;28;20042;-61
2021/09/25 00:33:44;;;;;;;7.68;3.03;;;;;;;22.87;46.92;101372.31;4993980;28;20034;-62
2021/09/25 00:36:09;;;;;;;6.07;2.75;;;;;;;22.85;47.78;101379.03;4992781;28;20033;-62
2021/09/25 00:38:37;;;;;;;6.22;2.90;;;;;;;22.83;46.86;101373.78;4993763;28;20055;-61
2021/09/25 00:41:04;;;;;;;9.32;3.10;;;;;;;22.82;47.91;101373.94;4994047;28;20041;-61
2021/09/25 00:43:29;;;;;;;5.07;3.13;;;;;;;22.80;47.84;101381.50;4992606;28;20072;-61
2021/09/25 00:45:54;;;;;;;7.30;3.45;;;;;;;22.78;47.83;101378.13;4993701;28;20472;-61
2021/09/25 00:48:20;;;;;;;6.22;2.75;;;;;;;22.76;47.19;101380.19;4993833;28;20118;-61
2021/09/25 00:50:45;;;;;;;5.85;3.50;;;;;;;22.74;47.57;101382.28;4993997;28;20030;-61
2021/09/25 00:53:10;;;;;;;6.70;3.25;;;;;;;22.72;47.13;101384.38;4993703;28;20442;-62
2021/09/25 00:55:36;;;;;;;5.35;3.60;;;;;;;22.69;47.28;101382.03;4993486;28;20034;-63
2021/09/25 00:58:03;;;;;;;5.50;2.42;;;;;;;22.66;47.03;101380.53;4992490;28;20038;-62
2021/09/25 01:00:30;;;;;;;7.78;3.00;;;;;;;22.67;47.95;101386.84;4993384;28;20034;-62
2021/09/25 01:02:55;;;;;;;7.90;3.40;;;;;;;22.65;48.04;101384.28;4993700;28;20364;-62
2021/09/25 01:05:22;;;;;;;6.88;3.30;;;;;;;22.59;47.76;101377.69;4994070;28;20042;-62
2021/09/25 01:07:48;;;;;;;6.95;3.25;;;;;;;22.59;47.29;101385.03;4994039;28;20467;-62
2021/09/25 01:10:16;;;;;;;6.93;3.40;;;;;;;22.57;48.03;101387.97;4994244;28;20029;-62
2021/09/25 01:12:42;;;;;;;10.05;4.03;;;;;;;22.52;48.09;101390.44;4994404;28;20026;-62
2021/09/25 01:15:08;;;;;;;6.45;3.60;;;;;;;22.49;47.17;101379.91;4993249;28;20026;-62
2021/09/25 01:17:33;;;;;;;9.10;3.88;;;;;;;22.45;47.69;101384.03;4993166;28;20030;-62
2021/09/25 01:20:00;;;;;;;7.03;3.83;;;;;;;22.42;47.23;101384.44;4994103;28;20105;-62
2021/09/25 01:22:26;;;;;;;5.05;3.22;;;;;;;22.38;47.83;101377.69;4994096;28;20080;-62
2021/09/25 01:24:51;;;;;;;9.90;4.32;;;;;;;22.34;48.25;101379.09;4994291;28;20053;-62
2021/09/25 01:27:17;;;;;;;7.43;3.58;;;;;;;22.32;47.78;101372.97;4992858;28;20030;-62
2021/09/25 01:29:42;;;;;;;9.70;3.92;;;;;;;22.29;47.38;101376.09;4995401;28;20522;-62
2021/09/25 01:32:08;;;;;;;6.50;3.75;;;;;;;22.30;47.59;101375.06;4998405;28;20037;-62
2021/09/25 01:34:34;;;;;;;6.18;3.30;;;;;;;22.27;47.94;101370.00;4998410;28;20026;-62
2021/09/25 01:37:00;;;;;;;6.05;3.63;;;;;;;22.23;47.76;101374.13;4998358;28;20030;-62
2021/09/25 01:39:25;;;;;;;7.35;3.92;;;;;;;22.25;48.17;101371.22;4996816;28;20042;-62
2021/09/25 01:41:51;;;;;;;7.15;4.20;;;;;;;22.21;47.68;101370.75;4998005;28;20037;-62
2021/09/25 01:44:16;;;;;;;9.05;3.53;;;;;;;22.22;47.96;101368.88;4998101;28;20105;-62
2021/09/25 01:46:41;;;;;;;6.95;3.58;;;;;;;22.19;47.73;101370.09;4998111;28;20033;-61
2021/09/25 01:49:07;;;;;;;5.65;3.05;;;;;;;22.19;47.88;101367.38;4997783;28;20387;-61
2021/09/25 01:51:32;;;;;;;6.57;3.47;;;;;;;22.21;48.57;101370.75;4998297;28;20463;-62
2021/09/25 01:53:58;;;;;;;7.70;4.13;;;;;;;22.20;47.80;101369.03;4997452;28;20041;-61
2021/09/25 01:56:23;;;;;;;12.15;3.95;;;;;;;22.19;47.70;101361.91;4997710;28;20147;-61
2021/09/25 01:58:48;;;;;;;10.27;4.07;;;;;;;22.15;48.03;101357.88;4997480;28;20026;-62
2021/09/25 02:01:14;;;;;;;7.95;3.85;;;;;;;22.18;48.53;101376.59;4997633;28;20018;-62
2021/09/25 02:03:39;;;;;;;6.18;3.53;;;;;;;22.17;47.67;101368.56;4997355;28;20037;-62
2021/09/25 02:06:06;;;;;;;7.30;3.95;;;;;;;22.15;48.55;101368.78;4997729;28;20486;-62
2021/09/25 02:08:32;;;;;;;10.18;4.35;;;;;;;22.10;48.68;101367.66;4997590;28;20539;-62
2021/09/25 02:10:58;;;;;;;9.88;4.07;;;;;;;22.10;48.41;101373.97;4996490;28;20486;-62
2021/09/25 02:13:24;;;;;;;14.05;3.92;;;;;;;22.08;48.39;101370.59;4997443;28;20081;-62
2021/09/25 02:15:49;;;;;;;7.88;4.63;;;;;;;22.07;48.58;101362.59;4997561;28;20029;-62
2021/09/25 02:18:14;;;;;;;8.55;3.90;;;;;;;22.08;47.88;101367.88;4997501;28;20043;-62
2021/09/25 02:20:40;;;;;;;8.07;3.55;;;;;;;22.06;48.59;101375.38;4997206;28;20105;-62
2021/09/25 02:23:05;;;;;;;11.98;4.40;;;;;;;22.06;48.92;101367.19;4997224;28;20034;-62
2021/09/25 02:25:31;;;;;;;7.57;4.38;;;;;;;22.03;48.82;101359.38;4996131;28;20041;-62
2021/09/25 02:27:56;;;;;;;8.43;4.35;;;;;;;22.09;48.88;101366.81;4996126;28;20056;-62
2021/09/25 02:30:22;;;;;;;8.55;3.97;;;;;;;22.11;48.15;101369.38;4997217;28;20026;-61
2021/09/25 02:32:48;;;;;;;6.32;3.88;;;;;;;22.12;48.23;101371.88;4997258;28;20028;-62
2021/09/25 02:35:15;;;;;;;8.63;4.50;;;;;;;22.15;48.40;101371.50;4997038;28;20031;-62
2021/09/25 02:37:41;;;;;;;11.70;5.05;;;;;;;22.18;48.09;101365.66;4996890;28;20106;-62
2021/09/25 02:40:08;;;;;;;10.13;4.72;;;;;;;22.20;49.32;101363.59;4996428;28;20116;-62
2021/09/25 02:42:33;;;;;;;9.55;3.78;;;;;;;22.23;49.15;101368.66;4996260;28;20030;-62
2021/09/25 02:44:59;;;;;;;9.00;4.65;;;;;;;22.27;48.22;101358.22;4996607;28;20052;-62
2021/09/25 02:47:24;;;;;;;11.27;4.50;;;;;;;22.29;48.99;101362.44;4996737;28;20077;-62
2021/09/25 02:49:50;;;;;;;9.15;5.40;;;;;;;22.30;48.73;101366.03;4996444;28;20372;-62
2021/09/25 02:52:15;;;;;;;9.20;4.15;;;;;;;22.31;48.73;101371.28;4996461;28;20467;-62
2021/09/25 02:54:40;;;;;;;10.18;5.55;;;;;;;22.26;48.99;101362.81;4996721;28;20026;-62
2021/09/25 02:57:06;;;;;;;13.05;5.90;;;;;;;22.34;48.34;101370.91;4996808;28;20032;-62
2021/09/25 02:59:31;;;;;;;9.02;4.85;;;;;;;22.35;49.21;101372.59;4996291;28;20077;-61
2021/09/25 03:01:56;;;;;;;9.95;5.03;;;;;;;22.36;48.25;101370.72;4996672;28;20046;-62
2021/09/25 03:04:22;;;;;;;10.85;5.25;;;;;;;22.33;49.00;101366.50;4996393;28;20054;-62
2021/09/25 03:06:48;;;;;;;7.60;4.80;;;;;;;22.37;48.66;101370.50;4996341;28;20031;-62
2021/09/25 03:09:13;;;;;;;11.63;5.55;;;;;;;22.35;49.33;101367.13;4996107;28;20496;-62
2021/09/25 03:11:39;;;;;;;9.55;5.18;;;;;;;22.41;48.71;101374.56;4996499;28;20018;-62
2021/09/25 03:14:04;;;;;;;11.73;5.30;;;;;;;22.42;49.34;101373.50;4996395;28;20027;-62
2021/09/25 03:16:29;;;;;;;9.57;4.43;;;;;;;22.45;48.84;101372.28;4996121;28;20110;-62
2021/09/25 03:18:55;;;;;;;9.00;4.43;;;;;;;22.47;49.34;101368.31;4994852;28;20064;-62
2021/09/25 03:21:20;;;;;;;7.20;4.03;;;;;;;22.50;49.50;101364.38;4995904;28;20030;-62
2021/09/25 03:23:45;;;;;;;11.75;4.32;;;;;;;22.50;49.17;101353.44;4996123;28;20030;-62
2021/09/25 03:26:11;;;;;;;11.50;4.60;;;;;;;22.51;49.53;101355.97;4996092;28;20030;-62
2021/09/25 03:28:36;;;;;;;9.75;4.78;;;;;;;22.48;48.91;101355.50;4995974;28;20057;-62
2021/09/25 03:31:02;;;;;;;9.02;4.93;;;;;;;22.52;48.70;101360.41;4995814;28;20085;-62
2021/09/25 03:33:27;;;;;;;10.68;5.38;;;;;;;22.50;48.89;101350.72;4995772;28;20029;-62
2021/09/25 03:35:52;;;;;;;13.65;5.05;;;;;;;22.53;48.50;101364.81;4995910;28;20029;-62
2021/09/25 03:38:21;;;;;;;10.82;5.10;;;;;;;22.50;49.42;101354.25;4994564;28;20062;-62
2021/09/25 03:40:47;;;;;;;14.60;5.82;;;;;;;22.52;49.59;101352.22;4995932;28;20034;-62
2021/09/25 03:43:13;;;;;;;8.35;5.18;;;;;;;22.45;48.72;101343.09;4995825;28;20395;-62
2021/09/25 03:45:38;;;;;;;11.35;5.30;;;;;;;22.58;48.51;101362.34;4995663;28;20026;-62
2021/09/25 03:48:05;;;;;;;9.85;5.30;;;;;;;22.59;49.20;101358.56;4995601;28;20031;-62
2021/09/25 03:50:32;;;;;;;12.02;5.35;;;;;;;22.60;48.69;101357.53;4994353;28;20019;-62
2021/09/25 03:52:58;;;;;;;10.63;5.28;;;;;;;22.62;49.61;101358.19;4994581;28;20018;-62
2021/09/25 03:55:23;;;;;;;11.60;5.35;;;;;;;22.64;48.85;101349.00;4995671;28;20030;-62
2021/09/25 03:57:48;;;;;;;9.75;4.65;;;;;;;22.66;49.63;101345.03;4995591;28;20098;-62
2021/09/25 04:00:14;;;;;;;12.70;5.47;;;;;;;22.67;48.64;101343.16;4995378;28;20030;-62
2021/09/25 04:02:39;;;;;;;12.57;5.35;;;;;;;22.67;49.40;101340.41;4995372;28;20494;-62
2021/09/25 04:05:05;;;;;;;16.83;5.75;;;;;;;22.67;48.71;101337.69;4994121;28;20033;-62
2021/09/25 04:07:31;;;;;;;8.68;5.20;;;;;;;22.65;48.77;101345.19;4995027;28;20442;-62
2021/09/25 04:09:56;;;;;;;9.05;4.65;;;;;;;22.65;48.74;101343.31;4995226;28;20034;-62
2021/09/25 04:12:21;;;;;;;11.73;5.68;;;;;;;22.65;49.07;101340.59;4995036;28;20054;-62
2021/09/25 04:14:47;;;;;;;13.65;5.20;;;;;;;22.65;48.67;101337.00;4994880;28;20057;-62
2021/09/25 04:17:12;;;;;;;7.45;4.45;;;;;;;22.58;48.72;101329.56;4995120;28;20072;-62
2021/09/25 04:19:37;;;;;;;10.73;5.25;;;;;;;22.54;49.71;101322.81;4995355;28;20023;-62
2021/09/25 04:22:03;;;;;;;10.77;5.38;;;;;;;22.57;49.52;101327.03;4993793;28;20463;-62
2021/09/25 04:24:28;;;;;;;12.45;4.80;;;;;;;22.50;49.09;101326.97;4993868;28;20076;-63
2021/09/25 04:26:53;;;;;;;13.18;6.78;;;;;;;22.51;49.03;101328.66;4994947;28;20080;-63
2021/09/25 04:29:19;;;;;;;12.77;5.43;;;;;;;22.50;48.96;101326.13;4994043;28;20068;-63
2021/09/25 04:31:46;;;;;;;13.45;6.35;;;;;;;22.49;49.61;101335.34;4993651;28;20053;-62
2021/09/25 04:34:12;;;;;;;11.70;6.20;;;;;;;22.50;49.46;101334.34;4993748;28;20444;-62
2021/09/25 04:36:40;;;;;;;11.23;5.43;;;;;;;22.50;49.36;101328.88;4994840;28;20034;-62
2021/09/25 04:39:06;;;;;;;12.00;6.28;;;;;;;22.53;49.63;101332.03;4994480;28;20050;-62
2021/09/25 04:41:31;;;;;;;10.88;5.72;;;;;;;22.54;48.95;101333.72;4993781;28;20101;-62
2021/09/25 04:43:56;;;;;;;12.40;5.82;;;;;;;22.50;49.50;101329.69;4994822;28;20049;-62
2021/09/25 04:46:22;;;;;;;11.98;5.80;;;;;;;22.52;49.46;101329.50;4994500;28;20030;-62
2021/09/25 04:48:48;;;;;;;16.17;6.68;;;;;;;22.55;48.85;101329.97;4994390;28;20026;-62
2021/09/25 04:51:15;;;;;;;16.42;6.18;;;;;;;22.56;49.78;101331.66;4994928;28;20026;-62
2021/09/25 04:53:40;;;;;;;15.80;6.88;;;;;;;22.57;49.81;101333.34;4993634;28;20438;-62
2021/09/25 04:56:05;;;;;;;13.70;6.43;;;;;;;22.54;49.40;101320.09;4994232;28;20038;-62
2021/09/25 04:58:31;;;;;;;12.63;6.50;;;;;;;22.59;48.89;101320.34;4993086;28;20026;-62
2021/09/25 05:00:56;;;;;;;10.02;5.35;;;;;;;22.61;48.90;101331.09;4994351;28;20034;-62
2021/09/25 05:03:22;;;;;;;14.63;6.38;;;;;;;22.59;48.71;101334.00;4994077;28;20101;-62
2021/09/25 05:05:47;;;;;;;11.23;5.78;;;;;;;22.60;49.39;101337.56;4994320;28;20034;-62
2021/09/25 05:08:13;;;;;;;14.85;6.10;;;;;;;22.61;49.08;101331.91;4994229;28;20018;-62
2021/09/25 05:10:38;;;;;;;11.15;5.30;;;;;;;22.62;48.85;101333.59;4994284;28;20028;-62
2021/09/25 05:13:04;;;;;;;14.80;5.32;;;;;;;22.64;49.51;101333.44;4994155;28;20060;-62
2021/09/25 05:15:29;;;;;;;13.13;4.78;;;;;;;22.65;49.31;101328.81;4994297;28;20060;-62
2021/09/25 05:17:55;;;;;;;15.88;6.75;;;;;;;22.65;49.07;101324.19;4994227;28;20026;-62
2021/09/25 05:20:20;;;;;;;8.57;5.10;;;;;;;22.65;49.06;101328.81;4994106;28;20039;-62
2021/09/25 05:22:45;;;;;;;8.00;5.07;;;;;;;22.66;48.86;101333.25;4994287;28;20026;-62
2021/09/25 05:25:11;;;;;;;10.65;5.60;;;;;;;22.62;49.63;101339.06;4993918;28;20026;-62
2021/09/25 05:27:37;;;;;;;11.52;5.15;;;;;;;22.55;49.84;101335.44;4994205;28;20034;-62
2021/09/25 05:30:04;;;;;;;11.10;5.35;;;;;;;22.56;49.51;101341.72;4994389;28;20405;-62
2021/09/25 05:32:29;;;;;;;12.85;5.32;;;;;;;22.55;49.88;101351.81;4993753;28;20112;-62
2021/09/25 05:34:54;;;;;;;8.63;4.70;;;;;;;22.52;49.94;101352.22;4994321;28;20076;-62
2021/09/25 05:37:20;;;;;;;9.15;4.05;;;;;;;22.48;50.13;101345.44;4994048;28;20386;-63
2021/09/25 05:39:45;;;;;;;15.07;6.38;;;;;;;22.51;49.58;101355.97;4993860;28;20097;-62
2021/09/25 05:42:13;;;;;;;11.23;4.32;;;;;;;22.52;49.55;101356.81;4994336;28;20028;-62
2021/09/25 05:44:44;;;;;;;13.13;5.22;;;;;;;22.51;49.82;101355.97;4994044;28;20105;-62
2021/09/25 05:47:09;;;;;;;7.03;4.55;;;;;;;22.50;50.08;101357.00;4994263;28;20420;-62
2021/09/25 05:49:34;;;;;;;12.98;5.22;;;;;;;22.52;49.77;101360.41;4994400;28;20120;-62
2021/09/25 05:52:01;;;;;;;9.25;4.57;;;;;;;22.58;49.13;101362.34;4994209;28;20372;-62
2021/09/25 05:54:26;;;;;;;9.52;4.18;;;;;;;22.63;49.05;101364.50;4993869;28;20161;-62
2021/09/25 05:56:51;;;;;;;11.05;4.70;;;;;;;22.65;49.86;101361.59;4993728;28;20073;-62
2021/09/25 05:59:17;;;;;;;8.85;4.10;;;;;;;22.66;49.23;101355.09;4994119;28;20108;-62
2021/09/25 06:01:43;;;;;;;9.27;4.78;;;;;;;22.65;49.02;101350.66;4993884;28;20054;-62
2021/09/25 06:04:09;;;;;;;8.10;4.45;;;;;;;22.64;49.75;101354.47;4994003;28;20432;-62
2021/09/25 06:06:35;;;;;;;9.70;5.50;;;;;;;22.63;48.88;101342.66;4994151;28;20069;-62
2021/09/25 06:09:00;;;;;;;10.75;4.45;;;;;;;22.70;49.21;101356.41;4993691;28;20033;-62
2021/09/25 06:11:25;;;;;;;11.35;3.78;;;;;;;22.70;49.84;101351.78;4993914;28;20208;-62
2021/09/25 06:13:51;;;;;;;6.35;3.63;;;;;;;22.75;49.24;101359.41;4994296;28;20030;-62
2021/09/25 06:16:16;;;;;;;7.72;3.65;;;;;;;22.76;49.45;101359.19;4995362;28;20506;-62
2021/09/25 06:18:42;;;;;;;8.90;4.57;;;;;;;22.80;49.59;101360.50;4997804;28;20022;-62
2021/09/25 06:21:07;;;;;;;8.30;3.78;;;;;;;22.79;49.20;101353.34;4996330;28;20026;-62
2021/09/25 06:23:32;;;;;;;9.57;4.95;;;;;;;22.82;49.81;101357.56;4997078;28;20032;-62
2021/09/25 06:25:58;;;;;;;7.60;3.90;;;;;;;22.86;49.80;101358.88;4997396;28;20048;-62
2021/09/25 06:28:23;;;;;;;8.23;4.68;;;;;;;22.86;49.34;101353.41;4997266;28;20539;-62
2021/09/25 06:30:48;;;;;;;8.98;4.05;;;;;;;22.90;49.18;101361.00;4996188;28;20037;-62
2021/09/25 06:33:14;;;;;;;8.52;4.82;;;;;;;22.95;49.62;101360.41;4996739;28;20031;-62
2021/09/25 06:35:39;;;;;;;7.55;4.53;;;;;;;22.99;49.27;101361.72;4997415;28;20027;-62
2021/09/25 06:38:05;;;;;;;10.98;5.43;;;;;;;22.97;49.41;101355.59;4996959;28;20057;-62
2021/09/25 06:40:30;;;;;;;10.10;4.63;;;;;;;22.99;49.80;101358.97;4996947;28;20034;-62
2021/09/25 06:42:55;;;;;;;9.65;5.00;;;;;;;22.93;49.10;101349.69;4997160;28;20046;-62
2021/09/25 06:45:21;;;;;;;6.85;4.03;;;;;;;23.04;49.36;101364.69;4997616;28;20034;-62
2021/09/25 06:47:47;;;;;;;11.77;5.30;;;;;;;23.08;48.93;101364.13;4998359;28;20117;-62
2021/09/25 06:50:12;;;;;;;9.95;4.07;;;;;;;23.13;49.70;101366.25;4998255;28;20030;-62
2021/09/25 06:52:38;;;;;;;7.70;4.88;;;;;;;23.17;49.63;101362.09;4999225;28;20510;-62
2021/09/25 06:55:05;;;;;;;7.80;4.22;;;;;;;23.26;49.69;101360.03;4996198;28;20033;-62
2021/09/25 06:57:30;;;;;;;11.50;4.55;;;;;;;23.29;49.50;101363.22;4997104;28;20033;-62
2021/09/25 06:59:56;;;;;;;10.52;4.47;;;;;;;23.32;49.04;101356.50;4996481;28;20018;-62
2021/09/25 07:02:22;;;;;;;12.10;5.30;;;;;;;23.37;49.41;101368.53;4996476;28;20122;-62
2021/09/25 07:04:47;;;;;;;23.08;4.78;;;;;;;23.41;48.40;101366.28;4996655;28;20081;-62
2021/09/25 07:07:13;;;;;;;15.80;6.35;;;;;;;23.45;49.20;101371.16;4996475;28;20038;-62
2021/09/25 07:09:41;;;;;;;11.40;4.47;;;;;;;23.48;48.72;101370.75;4996239;28;20429;-62
2021/09/25 07:12:08;;;;;;;8.00;4.13;;;;;;;23.53;49.21;101368.28;4996012;28;20196;-62
2021/09/25 07:14:33;;;;;;;7.85;4.10;;;;;;;23.63;49.26;101368.75;4996312;28;20141;-62
2021/09/25 07:16:58;;;;;;;14.15;5.68;;;;;;;23.68;49.17;101371.72;4996074;28;20460;-62
2021/09/25 07:19:24;;;;;;;6.93;4.78;;;;;;;23.72;48.19;101367.56;4996098;28;20518;-62
2021/09/25 07:21:49;;;;;;;6.00;3.50;;;;;;;23.80;49.03;101371.16;4995990;28;20509;-62
2021/09/25 07:24:14;;;;;;;9.35;3.60;;;;;;;23.88;48.03;101368.25;4995155;28;20411;-62
2021/09/25 07:26:40;;;;;;;7.03;3.17;;;;;;;24.01;48.23;101374.63;4995442;28;20105;-62
2021/09/25 07:29:05;;;;;;;8.30;3.55;;;;;;;24.15;48.33;101364.59;4995802;28;20027;-63
2021/09/25 07:31:31;;;;;;;12.95;3.83;;;;;;;24.32;47.84;101379.63;4996044;28;20018;-62
2021/09/25 07:33:56;;;;;;;7.88;4.18;;;;;;;24.50;47.67;101382.66;4995872;28;20061;-62
2021/09/25 07:36:24;;;;;;;10.50;4.38;;;;;;;24.61;48.17;101382.03;4995785;28;20097;-62
2021/09/25 07:38:49;;;;;;;7.70;4.03;;;;;;;24.65;47.60;101375.09;4994406;28;20057;-62
2021/09/25 07:41:15;;;;;;;6.35;4.25;;;;;;;24.80;47.97;101386.75;4994478;28;20483;-62
2021/09/25 07:43:40;;;;;;;6.45;3.97;;;;;;;24.95;47.27;101385.72;4995679;28;20053;-62
2021/09/25 07:46:06;;;;;;;6.35;3.88;;;;;;;25.08;47.54;101385.72;4995610;28;20101;-62
2021/09/25 07:48:31;;;;;;;7.40;4.22;;;;;;;25.19;47.07;101385.09;4995667;28;20108;-62
2021/09/25 07:50:56;;;;;;;9.68;4.10;;;;;;;25.29;47.04;101393.75;4995642;28;20564;-63
2021/09/25 07:53:22;;;;;;;7.68;4.10;;;;;;;25.39;47.09;101395.00;4995457;28;20033;-61
2021/09/25 07:55:47;;;;;;;8.20;4.68;;;;;;;25.59;46.33;101400.50;4995220;28;20022;-62
2021/09/25 07:58:13;;;;;;;7.30;4.15;;;;;;;25.76;45.78;101367.94;4995551;28;20019;-62
2021/09/25 08:00:39;;;;;;;7.95;3.65;;;;;;;26.19;45.72;101390.22;4994464;28;20116;-61
2021/09/25 08:03:04;;;;;;;6.57;3.72;;;;;;;26.36;45.57;101397.75;4994977;28;20030;-60
2021/09/25 08:05:30;;;;;;;8.07;3.78;;;;;;;26.65;45.62;101396.34;4995342;28;20030;-59
2021/09/25 08:07:55;;;;;;;7.38;3.60;;;;;;;27.02;44.80;101392.72;4995179;28;20026;-60
2021/09/25 08:10:21;;;;;;;8.68;4.22;;;;;;;27.33;44.76;101394.56;4995095;28;20393;-60
2021/09/25 08:12:46;;;;;;;10.68;4.47;;;;;;;27.62;44.84;101398.56;4995194;28;20030;-60
2021/09/25 08:15:13;;;;;;;7.47;3.72;;;;;;;28.06;44.33;101406.59;4994177;28;20499;-60
2021/09/25 08:17:39;;;;;;;7.03;4.25;;;;;;;28.50;43.15;101412.84;4995002;28;20438;-59
2021/09/25 08:20:06;;;;;;;8.43;4.50;;;;;;;28.56;43.09;101396.19;4995197;28;20031;-60
2021/09/25 08:22:33;;;;;;;8.40;4.15;;;;;;;28.56;43.49;101400.88;4993784;28;20050;-60
2021/09/25 08:24:58;;;;;;;7.63;4.22;;;;;;;28.53;42.81;101406.84;4995173;28;20022;-59
2021/09/25 08:27:23;;;;;;;7.93;3.78;;;;;;;28.50;43.93;101410.06;4994819;28;20022;-60
2021/09/25 08:29:49;;;;;;;7.45;3.83;;;;;;;28.52;43.79;101411.53;4994329;28;20074;-59
2021/09/25 08:32:14;;;;;;;7.85;3.88;;;;;;;28.52;43.75;101411.53;4994923;28;20026;-60
2021/09/25 08:34:40;;;;;;;8.90;4.35;;;;;;;28.53;43.28;101417.88;4994575;28;20383;-60
2021/09/25 08:37:06;;;;;;;9.95;4.43;;;;;;;28.50;43.45;101401.81;4993623;28;20027;-59
2021/09/25 08:39:32;;;;;;;7.90;4.28;;;;;;;28.66;42.55;101412.22;4993585;28;20406;-60
2021/09/25 08:41:59;;;;;;;8.07;3.67;;;;;;;28.88;41.83;101421.66;4994727;28;20027;-59
2021/09/25 08:44:24;;;;;;;7.15;3.70;;;;;;;29.40;41.40;101415.28;4994611;28;20038;-60
2021/09/25 08:46:50;;;;;;;9.73;3.90;;;;;;;29.47;41.07;101419.88;4993382;28;20387;-60
2021/09/25 08:49:15;;;;;;;7.47;4.15;;;;;;;29.48;42.25;101421.56;4992967;28;20475;-60
2021/09/25 08:51:41;;;;;;;5.53;3.70;;;;;;;29.47;41.98;101420.72;4994319;28;20030;-60
2021/09/25 08:54:06;;;;;;;5.95;3.33;;;;;;;29.57;41.04;101420.09;4994563;28;20475;-60
2021/09/25 08:56:32;;;;;;;6.40;3.60;;;;;;;29.45;41.68;101417.38;4995272;28;20491;-61
2021/09/25 08:58:57;;;;;;;8.77;4.18;;;;;;;29.35;41.42;101420.69;4993814;28;20081;-60
2021/09/25 09:01:30;;;;;;;6.60;3.85;;;;;;;29.35;41.69;101426.22;4994254;28;20474;-60
2021/09/25 09:03:56;;;;;;;6.28;3.92;;;;;;;29.33;41.10;101425.63;4993741;28;20430;-60
2021/09/25 09:06:24;;;;;;;6.80;3.78;;;;;;;29.26;40.92;101433.16;4994565;28;20030;-60
2021/09/25 09:08:52;;;;;;;6.47;3.90;;;;;;;29.18;41.81;101422.44;4994462;28;20031;-60
2021/09/25 09:11:20;;;;;;;9.15;3.53;;;;;;;29.22;41.28;101431.97;4994658;28;20030;-60
2021/09/25 09:13:51;;;;;;;7.97;3.85;;;;;;;29.18;40.91;101427.97;4994584;28;20026;-60
2021/09/25 09:16:16;;;;;;;6.03;3.60;;;;;;;29.10;41.45;101436.59;4994402;28;20146;-60
2021/09/25 09:18:44;;;;;;;7.03;3.53;;;;;;;29.07;41.45;101437.06;4994117;28;20491;-60
2021/09/25 09:21:12;;;;;;;7.95;3.92;;;;;;;29.04;41.61;101426.47;4993161;28;20018;-60
2021/09/25 09:23:45;;;;;;;6.25;3.67;;;;;;;28.99;41.80;101429.13;5161531;22;20061;-85
2021/09/25 09:26:13;;;;;;;7.35;3.35;;;;;;;28.99;41.81;101431.03;5034668;23;20077;-60
2021/09/25 09:28:39;;;;;;;7.13;3.17;;;;;;;29.04;41.73;101433.91;5013663;28;20032;-61
2021/09/25 09:31:06;;;;;;;9.95;4.10;;;;;;;29.11;41.56;101421.72;5013857;28;20029;-61
2021/09/25 09:33:35;;;;;;;6.47;3.65;;;;;;;29.22;41.65;101436.66;5013743;28;20088;-62
2021/09/25 09:36:11;;;;;;;6.20;3.03;;;;;;;29.27;41.51;101429.34;5013536;28;20117;-60
2021/09/25 09:38:39;;;;;;;11.80;3.83;;;;;;;29.33;40.67;101425.63;5013761;28;20073;-61
2021/09/25 09:41:04;;;;;;;6.82;3.97;;;;;;;29.31;41.25;101419.47;5013362;28;20026;-60
2021/09/25 09:43:30;;;;;;;6.53;3.58;;;;;;;29.31;41.27;101427.75;5013423;28;20075;-61
2021/09/25 09:45:58;;;;;;;7.30;3.78;;;;;;;29.29;40.96;101423.56;5013531;28;20034;-60
2021/09/25 09:48:23;;;;;;;6.82;3.97;;;;;;;29.38;40.32;101428.50;5013757;28;20076;-60
2021/09/25 09:50:50;;;;;;;10.55;3.88;;;;;;;29.50;40.52;101424.91;5015921;28;20393;-60
2021/09/25 09:53:17;;;;;;;7.35;3.67;;;;;;;29.62;40.47;101417.50;5017322;28;20535;-61
2021/09/25 09:55:42;;;;;;;9.73;4.05;;;;;;;29.76;39.99;101428.03;5017279;28;20461;-61
2021/09/25 09:58:08;;;;;;;9.15;4.22;;;;;;;30.00;39.67;101420.59;5016034;28;20084;-60
2021/09/25 10:00:35;;;;;;;7.38;3.60;;;;;;;30.14;40.13;101416.50;5017016;28;20084;-61
2021/09/25 10:03:01;;;;;;;5.85;3.85;;;;;;;30.22;39.60;101413.34;5017002;28;20072;-61
2021/09/25 10:05:27;;;;;;;6.15;3.72;;;;;;;30.27;39.85;101416.22;5017187;28;20053;-61
2021/09/25 10:07:52;;;;;;;8.00;3.90;;;;;;;30.42;39.51;101419.34;5016757;28;20026;-61
2021/09/25 10:10:18;;;;;;;8.82;4.13;;;;;;;30.64;39.22;101413.13;5016875;28;20033;-61
2021/09/25 10:12:44;;;;;;;5.07;3.42;;;;;;;30.93;38.85;101412.06;5016757;28;20036;-60
2021/09/25 10:15:10;;;;;;;6.38;3.50;;;;;;;31.21;38.58;101400.06;5032372;28;20080;-61
2021/09/25 10:17:35;;;;;;;7.93;4.20;;;;;;;31.54;38.37;101405.63;5017304;28;20033;-60
2021/09/25 10:20:01;;;;;;;7.00;4.10;;;;;;;32.52;36.90;101413.09;5015605;28;20466;-60
2021/09/25 10:22:30;;;;;;;8.32;3.63;;;;;;;33.19;36.13;101402.44;5016604;28;20556;-61
2021/09/25 10:24:58;;;;;;;5.43;3.63;;;;;;;34.23;35.34;101402.63;5009146;28;20049;-61
2021/09/25 10:27:28;;;;;;;4.38;3.25;;;;;;;34.79;33.73;101393.34;5015844;28;20025;-61
2021/09/25 10:29:54;;;;;;;5.78;3.65;;;;;;;34.97;34.10;101390.03;5015649;28;20389;-61
2021/09/25 10:32:20;;;;;;;5.63;3.38;;;;;;;35.26;33.66;101383.94;5016580;28;20025;-60
2021/09/25 10:35:08;;;;;;;6.20;4.22;;;;;;;35.82;33.00;101387.50;5016940;28;20108;-61
2021/09/25 10:37:55;;;;;;;9.25;3.83;;;;;;;36.36;32.91;101385.63;5015440;28;20060;-61
2021/09/25 10:40:26;;;;;;;4.78;3.63;;;;;;;36.72;32.18;101386.28;5016644;28;20354;-62
2021/09/25 10:42:56;;;;;;;5.33;3.73;;;;;;;37.02;32.90;101374.91;5016782;28;20025;-61
2021/09/25 10:45:33;;;;;;;7.00;2.92;;;;;;;37.36;31.76;101383.25;5016295;28;20057;-61
2021/09/25 10:48:16;;;;;;;7.22;4.20;;;;;;;37.69;30.99;101378.78;5016363;28;20068;-61
2021/09/25 10:51:05;;;;;;;5.95;3.40;;;;;;;37.96;30.45;101379.06;5016464;28;20029;-61
2021/09/25 10:53:33;;;;;;;5.32;3.60;;;;;;;38.21;30.68;101381.53;5016360;28;20370;-61
2021/09/25 10:56:03;;;;;;;15.77;4.10;;;;;;;38.44;29.79;101382.66;5015018;28;20486;-56
2021/09/25 10:58:37;;;;;;;8.38;4.20;;;;;;;38.60;30.24;101386.06;5015964;28;20097;-63
2021/09/25 11:01:14;;;;;;;7.80;3.50;;;;;;;38.80;29.00;101372.63;5015817;28;20025;-61
2021/09/25 11:03:48;;;;;;;5.07;3.92;;;;;;;38.98;28.84;101373.72;5014755;28;20468;-61
2021/09/25 11:06:15;;;;;;;5.95;3.60;;;;;;;39.17;29.19;101370.88;5016344;28;20072;-61
2021/09/25 11:09:03;;;;;;;6.45;4.13;;;;;;;39.37;28.35;101359.31;5015838;28;20029;-61
2021/09/25 11:11:48;;;;;;;8.75;4.10;;;;;;;39.49;28.19;101360.50;5016190;28;20076;-61
2021/09/25 11:14:51;;;;;;;13.13;5.28;;;;;;;39.66;27.85;101359.09;5015895;28;20058;-61
2021/09/25 11:17:17;;;;;;;6.90;4.80;;;;;;;39.71;27.88;101354.19;5012363;28;20092;-61
2021/09/25 11:19:44;;;;;;;4.60;3.40;;;;;;;39.81;27.90;101341.97;5015601;28;20473;-61